createdAt,value
2019-01-21T00:00:46.388Z,60.81
2019-01-21T00:01:54.436Z,60.80
2019-01-21T00:03:02.692Z,60.77
2019-01-21T00:04:10.217Z,60.81
2019-01-21T00:05:18.161Z,60.83
2019-01-21T00:06:26.287Z,60.85
2019-01-21T00:07:33.939Z,60.85
2019-01-21T00:08:41.793Z,60.81
2019-01-21T00:09:49.412Z,60.78
2019-01-21T00:10:56.964Z,60.83
2019-01-21T00:12:05.020Z,60.84
2019-01-21T00:13:12.656Z,60.83
2019-01-21T00:14:20.727Z,60.80
2019-01-21T00:15:28.353Z,60.77
2019-01-21T00:16:36.120Z,60.74
2019-01-21T00:17:44.099Z,60.68
2019-01-21T00:18:52.105Z,60.75
2019-01-21T00:19:59.888Z,60.81
2019-01-21T00:21:07.891Z,60.97
2019-01-21T00:22:15.537Z,61.01
2019-01-21T00:23:23.382Z,61.08
2019-01-21T00:24:31.317Z,61.15
2019-01-21T00:25:39.100Z,61.23
2019-01-21T00:26:46.837Z,61.27
2019-01-21T00:27:54.558Z,61.26
2019-01-21T00:29:02.144Z,61.25
2019-01-21T00:30:12.762Z,61.35
2019-01-21T00:31:20.487Z,61.35
2019-01-21T00:32:28.184Z,61.39
2019-01-21T00:33:36.257Z,61.43
2019-01-21T00:34:43.831Z,61.41
2019-01-21T00:35:52.015Z,61.39
2019-01-21T00:37:03.620Z,61.36
2019-01-21T00:38:09.967Z,61.35
2019-01-21T00:39:17.662Z,61.32
2019-01-21T00:40:25.503Z,61.28
2019-01-21T00:41:33.662Z,61.21
2019-01-21T00:42:41.568Z,61.16
2019-01-21T00:43:49.640Z,61.11
2019-01-21T00:44:57.266Z,61.09
2019-01-21T00:46:04.808Z,61.13
2019-01-21T00:47:12.332Z,61.10
2019-01-21T00:48:20.029Z,61.13
2019-01-21T00:49:27.908Z,61.19
2019-01-21T00:50:35.978Z,61.30
2019-01-21T00:51:44.096Z,61.32
2019-01-21T00:52:51.662Z,61.32
2019-01-21T00:53:59.709Z,61.36
2019-01-21T00:55:10.457Z,61.42
2019-01-21T00:56:18.291Z,61.50
2019-01-21T00:57:26.006Z,61.47
2019-01-21T00:58:33.837Z,61.47
2019-01-21T00:59:41.862Z,61.46
2019-01-21T01:00:49.330Z,61.42
2019-01-21T01:01:58.506Z,61.40
2019-01-21T01:03:37.414Z,61.38
2019-01-21T01:04:45.490Z,61.36
2019-01-21T01:05:53.516Z,61.39
2019-01-21T01:07:01.278Z,61.41
2019-01-21T01:08:08.937Z,61.46
2019-01-21T01:09:16.535Z,61.45
2019-01-21T01:10:24.278Z,61.51
2019-01-21T01:11:32.018Z,61.64
2019-01-21T01:12:39.553Z,61.70
2019-01-21T01:13:47.195Z,61.71
2019-01-21T01:14:54.911Z,61.77
2019-01-21T01:16:02.980Z,61.75
2019-01-21T01:17:10.721Z,61.71
2019-01-21T01:18:18.313Z,61.69
2019-01-21T01:19:25.911Z,61.70
2019-01-21T01:20:33.728Z,61.68
2019-01-21T01:21:41.598Z,61.69
2019-01-21T01:22:49.640Z,61.67
2019-01-21T01:23:57.408Z,61.63
2019-01-21T01:25:05.918Z,61.58
2019-01-21T01:26:13.546Z,61.57
2019-01-21T01:27:21.285Z,61.61
2019-01-21T01:28:29.039Z,61.54
2019-01-21T01:29:36.505Z,61.48
2019-01-21T01:30:44.315Z,61.46
2019-01-21T01:31:52.015Z,61.48
2019-01-21T01:32:59.631Z,61.46
2019-01-21T01:34:07.399Z,61.40
2019-01-21T01:35:16.358Z,61.39
2019-01-21T01:36:23.916Z,61.37
2019-01-21T01:37:31.561Z,61.39
2019-01-21T01:38:39.474Z,61.37
2019-01-21T01:39:47.073Z,61.32
2019-01-21T01:40:55.092Z,61.28
2019-01-21T01:42:02.549Z,61.23
2019-01-21T01:43:10.547Z,61.23
2019-01-21T01:44:18.197Z,61.20
2019-01-21T01:45:26.223Z,61.22
2019-01-21T01:46:34.019Z,61.21
2019-01-21T01:47:44.864Z,61.22
2019-01-21T01:48:51.250Z,61.19
2019-01-21T01:49:59.045Z,61.19
2019-01-21T01:51:06.709Z,61.16
2019-01-21T01:52:14.455Z,61.13
2019-01-21T01:53:22.148Z,61.08
2019-01-21T01:54:29.794Z,61.06
2019-01-21T01:55:37.876Z,61.00
2019-01-21T01:56:45.762Z,61.03
2019-01-21T01:57:55.082Z,61.11
2019-01-21T01:59:02.791Z,61.17
2019-01-21T02:00:16.023Z,61.18
2019-01-21T02:01:23.837Z,61.17
2019-01-21T02:02:31.697Z,61.17
2019-01-21T02:03:39.466Z,61.23
2019-01-21T02:04:47.149Z,61.27
2019-01-21T02:05:55.060Z,61.45
2019-01-21T02:07:02.856Z,61.48
2019-01-21T02:08:10.716Z,61.53
2019-01-21T02:09:18.326Z,61.54
2019-01-21T02:10:25.996Z,61.48
2019-01-21T02:11:33.758Z,61.42
2019-01-21T02:12:41.362Z,61.43
2019-01-21T02:13:49.082Z,61.44
2019-01-21T02:14:56.964Z,61.48
2019-01-21T02:16:04.959Z,61.51
2019-01-21T02:17:12.595Z,61.51
2019-01-21T02:18:20.551Z,61.51
2019-01-21T02:19:29.660Z,61.58
2019-01-21T02:20:37.193Z,61.57
2019-01-21T02:21:44.682Z,61.56
2019-01-21T02:22:58.628Z,61.61
2019-01-21T02:24:07.421Z,61.72
2019-01-21T02:25:15.246Z,61.74
2019-01-21T02:26:23.720Z,61.77
2019-01-21T02:27:36.110Z,61.79
2019-01-21T02:28:57.560Z,61.83
2019-01-21T02:30:15.696Z,61.82
2019-01-21T02:31:55.644Z,61.78
2019-01-21T02:33:26.371Z,61.79
2019-01-21T02:34:53.812Z,61.77
2019-01-21T02:36:09.139Z,61.74
2019-01-21T02:37:29.985Z,61.86
2019-01-21T02:38:51.239Z,61.91
2019-01-21T02:40:27.573Z,62.00
2019-01-21T02:41:37.910Z,62.01
2019-01-21T02:42:53.378Z,61.99
2019-01-21T02:44:24.140Z,61.95
2019-01-21T02:45:42.520Z,61.92
2019-01-21T02:47:12.735Z,61.86
2019-01-21T02:48:44.511Z,61.82
2019-01-21T02:50:05.765Z,61.73
2019-01-21T02:51:43.494Z,61.71
2019-01-21T02:53:01.639Z,61.81
2019-01-21T02:54:16.637Z,62.00
2019-01-21T02:55:40.981Z,62.13
2019-01-21T02:57:01.523Z,62.17
2019-01-21T02:58:25.419Z,62.21
2019-01-21T03:00:01.689Z,62.23
2019-01-21T03:01:33.829Z,62.22
2019-01-21T03:02:54.466Z,62.15
2019-01-21T03:04:21.276Z,62.10
2019-01-21T03:06:02.318Z,62.07
2019-01-21T03:07:40.503Z,62.00
2019-01-21T03:08:53.000Z,61.95
2019-01-21T03:10:37.120Z,61.85
2019-01-21T03:11:55.215Z,61.71
2019-01-21T03:13:40.186Z,61.58
2019-01-21T03:15:20.523Z,61.56
2019-01-21T03:16:58.604Z,61.64
2019-01-21T03:18:19.548Z,61.72
2019-01-21T03:19:46.724Z,61.73
2019-01-21T03:21:10.648Z,61.74
2019-01-21T03:22:43.877Z,61.72
2019-01-21T03:24:19.074Z,61.76
2019-01-21T03:25:46.216Z,61.69
2019-01-21T03:27:28.987Z,61.66
2019-01-21T03:28:49.908Z,61.67
2019-01-21T03:30:38.679Z,61.65
2019-01-21T03:32:24.400Z,61.71
2019-01-21T03:33:48.508Z,61.83
2019-01-21T03:35:09.596Z,62.04
2019-01-21T03:36:39.690Z,62.09
2019-01-21T03:38:33.524Z,62.15
2019-01-21T03:40:03.833Z,62.30
2019-01-21T03:41:31.350Z,62.39
2019-01-21T03:42:58.597Z,62.48
2019-01-21T03:44:31.486Z,62.51
2019-01-21T03:45:49.575Z,62.59
2019-01-21T03:47:25.742Z,62.74
2019-01-21T03:48:38.090Z,62.80
2019-01-21T03:50:22.214Z,62.90
2019-01-21T03:52:02.368Z,62.93
2019-01-21T03:53:26.811Z,63.15
2019-01-21T03:54:34.739Z,63.04
2019-01-21T03:55:42.960Z,63.13
2019-01-21T03:56:55.502Z,63.24
2019-01-21T03:58:32.010Z,63.42
2019-01-21T03:59:55.863Z,63.53
2019-01-21T04:01:14.559Z,63.64
2019-01-21T04:02:26.932Z,63.73
2019-01-21T04:04:03.856Z,63.73
2019-01-21T04:05:37.088Z,63.98
2019-01-21T04:06:52.442Z,63.71
2019-01-21T04:08:07.778Z,63.73
2019-01-21T04:09:38.019Z,63.66
2019-01-21T04:11:01.900Z,63.67
2019-01-21T04:12:39.162Z,63.66
2019-01-21T04:14:12.972Z,63.58
2019-01-21T04:15:36.792Z,63.60
2019-01-21T04:16:57.961Z,63.48
2019-01-21T04:18:13.245Z,63.43
2019-01-21T04:19:34.047Z,63.40
2019-01-21T04:20:58.211Z,63.40
2019-01-21T04:22:13.683Z,63.38
2019-01-21T04:23:51.940Z,63.39
2019-01-21T04:25:16.269Z,63.38
2019-01-21T04:26:34.604Z,63.38
2019-01-21T04:28:14.136Z,63.36
2019-01-21T04:29:46.224Z,63.37
2019-01-21T04:31:14.041Z,63.32
2019-01-21T04:32:44.183Z,63.39
2019-01-21T04:34:05.340Z,63.38
2019-01-21T04:35:49.463Z,63.39
2019-01-21T04:37:16.977Z,63.44
2019-01-21T04:38:56.953Z,63.52
2019-01-21T04:40:14.846Z,63.51
2019-01-21T04:41:59.567Z,63.54
2019-01-21T04:43:50.300Z,63.53
2019-01-21T04:45:18.948Z,63.51
2019-01-21T04:46:48.731Z,63.44
2019-01-21T04:48:18.910Z,63.47
2019-01-21T04:49:39.842Z,63.42
2019-01-21T04:51:25.927Z,63.40
2019-01-21T04:52:47.271Z,63.39
2019-01-21T04:54:28.368Z,63.37
2019-01-21T04:56:09.825Z,63.42
2019-01-21T04:57:40.501Z,63.43
2019-01-21T04:59:01.410Z,63.46
2019-01-21T05:00:19.430Z,63.51
2019-01-21T05:02:02.400Z,63.52
2019-01-21T05:03:41.046Z,63.51
2019-01-21T05:05:31.243Z,63.53
2019-01-21T05:07:16.499Z,63.51
2019-01-21T05:09:04.756Z,63.48
2019-01-21T05:10:39.835Z,63.52
2019-01-21T05:12:03.813Z,63.56
2019-01-21T05:13:19.039Z,63.56
2019-01-21T05:14:48.894Z,63.61
2019-01-21T05:16:15.939Z,63.56
2019-01-21T05:17:37.400Z,63.57
2019-01-21T05:19:12.930Z,63.57
2019-01-21T05:20:58.616Z,63.57
2019-01-21T05:22:26.402Z,63.58
2019-01-21T05:24:04.280Z,63.58
2019-01-21T05:25:26.149Z,63.52
2019-01-21T05:26:56.229Z,63.61
2019-01-21T05:28:11.599Z,63.63
2019-01-21T05:29:45.161Z,63.69
2019-01-21T05:31:06.106Z,63.70
2019-01-21T05:32:21.321Z,63.69
2019-01-21T05:33:42.394Z,63.72
2019-01-21T05:35:31.031Z,63.72
2019-01-21T05:36:43.874Z,63.73
2019-01-21T05:37:56.824Z,63.74
2019-01-21T05:39:14.817Z,63.74
2019-01-21T05:40:45.534Z,63.73
2019-01-21T05:42:31.424Z,63.69
2019-01-21T05:44:21.763Z,63.66
2019-01-21T05:46:05.033Z,63.60
2019-01-21T05:47:46.487Z,63.49
2019-01-21T05:49:33.950Z,63.43
2019-01-21T05:51:20.222Z,63.39
2019-01-21T05:52:58.442Z,63.30
2019-01-21T05:54:20.146Z,63.35
2019-01-21T05:56:21.364Z,63.34
2019-01-21T05:57:57.846Z,63.32
2019-01-21T05:59:42.419Z,63.29
2019-01-21T06:01:19.319Z,63.26
2019-01-21T06:02:37.352Z,63.27
2019-01-21T06:04:18.199Z,63.32
2019-01-21T06:06:04.151Z,63.35
2019-01-21T06:07:31.596Z,63.34
2019-01-21T06:09:09.598Z,63.33
2019-01-21T06:10:30.944Z,63.34
2019-01-21T06:11:58.350Z,63.43
2019-01-21T06:13:31.850Z,63.66
2019-01-21T06:15:13.221Z,64.05
2019-01-21T06:16:31.915Z,64.34
2019-01-21T06:18:08.907Z,64.70
2019-01-21T06:19:44.877Z,64.95
2019-01-21T06:21:14.746Z,65.02
2019-01-21T06:22:42.970Z,65.60
2019-01-21T06:24:04.486Z,65.88
2019-01-21T06:25:36.578Z,66.12
2019-01-21T06:27:05.097Z,66.13
2019-01-21T06:28:39.330Z,66.01
2019-01-21T06:30:09.950Z,65.88
2019-01-21T06:31:43.734Z,65.75
2019-01-21T06:33:26.985Z,65.78
2019-01-21T06:34:46.003Z,65.63
2019-01-21T06:36:13.251Z,65.47
2019-01-21T06:37:37.382Z,65.37
2019-01-21T06:39:05.197Z,65.36
2019-01-21T06:40:34.241Z,65.33
2019-01-21T06:42:08.171Z,65.56
2019-01-21T06:43:47.313Z,65.82
2019-01-21T06:45:18.192Z,65.79
2019-01-21T06:46:42.728Z,65.88
2019-01-21T06:48:12.579Z,65.73
2019-01-21T06:49:44.623Z,65.93
2019-01-21T06:51:05.796Z,66.28
2019-01-21T06:52:30.444Z,66.21
2019-01-21T06:54:15.364Z,66.13
2019-01-21T06:55:42.795Z,66.01
2019-01-21T06:57:20.863Z,65.80
2019-01-21T06:58:55.947Z,65.61
2019-01-21T07:00:43.796Z,65.37
2019-01-21T07:02:11.244Z,65.14
2019-01-21T07:03:41.543Z,64.84
2019-01-21T07:05:24.471Z,64.53
2019-01-21T07:06:56.633Z,64.52
2019-01-21T07:08:23.739Z,64.47
2019-01-21T07:10:11.091Z,64.38
2019-01-21T07:11:47.913Z,64.38
2019-01-21T07:13:19.001Z,64.30
2019-01-21T07:14:52.419Z,64.18
2019-01-21T07:16:57.052Z,64.10
2019-01-21T07:18:26.108Z,64.21
2019-01-21T07:19:42.268Z,64.26
2019-01-21T07:21:00.790Z,64.25
2019-01-21T07:22:28.009Z,64.25
2019-01-21T07:24:01.424Z,64.18
2019-01-21T07:25:25.983Z,64.13
2019-01-21T07:26:54.917Z,64.00
2019-01-21T07:28:10.617Z,63.80
2019-01-21T07:29:32.891Z,63.72
2019-01-21T07:31:12.959Z,63.65
2019-01-21T07:32:42.527Z,63.59
2019-01-21T07:34:18.002Z,63.49
2019-01-21T07:35:46.970Z,63.41
2019-01-21T07:37:15.226Z,63.30
2019-01-21T07:38:36.874Z,63.31
2019-01-21T07:40:04.194Z,63.41
2019-01-21T07:41:55.061Z,63.54
2019-01-21T07:43:14.440Z,63.58
2019-01-21T07:44:45.762Z,63.55
2019-01-21T07:46:10.341Z,63.53
2019-01-21T07:47:56.232Z,63.43
2019-01-21T07:49:42.651Z,63.27
2019-01-21T07:51:27.753Z,62.99
2019-01-21T07:53:07.387Z,62.76
2019-01-21T07:54:31.811Z,62.60
2019-01-21T07:56:03.709Z,62.44
2019-01-21T07:57:35.677Z,62.44
2019-01-21T07:59:28.728Z,62.44
2019-01-21T08:00:46.940Z,62.35
2019-01-21T08:02:04.995Z,62.21
2019-01-21T08:03:38.471Z,62.12
2019-01-21T08:05:21.075Z,62.08
2019-01-21T08:06:48.032Z,61.99
2019-01-21T08:08:09.152Z,61.83
2019-01-21T08:09:42.131Z,61.78
2019-01-21T08:11:00.520Z,61.78
2019-01-21T08:12:18.926Z,61.75
2019-01-21T08:13:34.458Z,61.70
2019-01-21T08:14:52.754Z,61.75
2019-01-21T08:16:17.372Z,61.71
2019-01-21T08:17:52.616Z,61.89
2019-01-21T08:19:24.238Z,62.01
2019-01-21T08:20:37.789Z,62.05
2019-01-21T08:22:16.343Z,62.18
2019-01-21T08:23:55.629Z,62.26
2019-01-21T08:25:43.174Z,62.20
2019-01-21T08:27:13.941Z,62.05
2019-01-21T08:28:47.468Z,61.89
2019-01-21T08:30:16.630Z,61.75
2019-01-21T08:31:59.291Z,61.63
2019-01-21T08:33:23.447Z,61.55
2019-01-21T08:35:12.707Z,61.45
2019-01-21T08:36:36.881Z,61.35
2019-01-21T08:38:09.157Z,61.37
2019-01-21T08:39:55.337Z,61.44
2019-01-21T08:41:16.843Z,61.70
2019-01-21T08:42:45.447Z,61.99
2019-01-21T08:44:33.058Z,62.22
2019-01-21T08:46:00.820Z,62.36
2019-01-21T08:47:29.018Z,62.29
2019-01-21T08:48:53.398Z,62.34
2019-01-21T08:50:20.607Z,62.29
2019-01-21T08:51:51.728Z,62.26
2019-01-21T08:53:22.509Z,62.19
2019-01-21T08:55:00.606Z,62.11
2019-01-21T08:56:37.457Z,61.97
2019-01-21T08:58:29.662Z,61.84
2019-01-21T08:59:51.026Z,61.69
2019-01-21T09:01:31.178Z,61.52
2019-01-21T09:03:04.915Z,61.58
2019-01-21T09:04:46.394Z,61.54
2019-01-21T09:06:16.250Z,61.62
2019-01-21T09:07:55.677Z,61.53
2019-01-21T09:09:16.726Z,61.41
2019-01-21T09:10:56.062Z,61.30
2019-01-21T09:12:20.544Z,61.15
2019-01-21T09:13:45.085Z,60.96
2019-01-21T09:15:19.023Z,60.66
2019-01-21T09:16:40.383Z,60.46
2019-01-21T09:18:05.131Z,60.68
2019-01-21T09:19:44.790Z,60.82
2019-01-21T09:21:15.341Z,60.82
2019-01-21T09:23:04.494Z,60.77
2019-01-21T09:24:39.515Z,60.73
2019-01-21T09:25:57.937Z,60.79
2019-01-21T09:27:37.905Z,61.13
2019-01-21T09:29:02.693Z,61.21
2019-01-21T09:30:41.235Z,61.21
2019-01-21T09:32:25.593Z,61.09
2019-01-21T09:33:49.876Z,60.98
2019-01-21T09:35:11.225Z,60.93
2019-01-21T09:36:38.472Z,60.92
2019-01-21T09:38:05.522Z,60.96
2019-01-21T09:39:32.882Z,60.94
2019-01-21T09:41:03.020Z,60.67
2019-01-21T09:42:51.831Z,60.51
2019-01-21T09:44:10.091Z,60.54
2019-01-21T09:45:44.077Z,60.49
2019-01-21T09:46:50.460Z,60.37
2019-01-21T09:47:56.847Z,60.18
2019-01-21T09:49:03.042Z,60.09
2019-01-21T09:50:10.887Z,59.97
2019-01-21T09:51:18.615Z,59.82
2019-01-21T09:52:26.653Z,59.69
2019-01-21T09:53:37.616Z,59.53
2019-01-21T09:54:45.360Z,59.39
2019-01-21T09:55:54.916Z,59.38
2019-01-21T09:57:04.766Z,59.36
2019-01-21T09:58:12.355Z,59.33
2019-01-21T09:59:20.064Z,59.27
2019-01-21T10:00:28.134Z,59.19
2019-01-21T10:01:35.795Z,59.16
2019-01-21T10:02:43.567Z,59.07
2019-01-21T10:03:51.734Z,58.95
2019-01-21T10:05:00.951Z,58.93
2019-01-21T10:06:09.042Z,58.87
2019-01-21T10:07:27.312Z,58.89
2019-01-21T10:08:51.357Z,58.95
2019-01-21T10:10:12.457Z,59.03
2019-01-21T10:11:42.496Z,59.03
2019-01-21T10:13:15.920Z,59.01
2019-01-21T10:14:57.049Z,58.87
2019-01-21T10:16:09.590Z,58.74
2019-01-21T10:17:39.693Z,58.53
2019-01-21T10:19:10.959Z,58.42
2019-01-21T10:20:32.478Z,58.25
2019-01-21T10:22:12.343Z,58.07
2019-01-21T10:23:58.321Z,57.97
2019-01-21T10:25:28.538Z,57.85
2019-01-21T10:26:46.984Z,57.58
2019-01-21T10:28:11.319Z,57.80
2019-01-21T10:29:23.766Z,57.93
2019-01-21T10:30:42.130Z,58.06
2019-01-21T10:32:16.354Z,58.07
2019-01-21T10:33:45.633Z,58.05
2019-01-21T10:35:21.107Z,58.03
2019-01-21T10:36:39.373Z,57.95
2019-01-21T10:38:01.088Z,57.85
2019-01-21T10:39:31.513Z,57.91
2019-01-21T10:41:04.276Z,57.98
2019-01-21T10:42:34.037Z,57.89
2019-01-21T10:44:04.192Z,57.79
2019-01-21T10:45:37.208Z,57.85
2019-01-21T10:47:01.532Z,57.98
2019-01-21T10:48:14.020Z,58.12
2019-01-21T10:49:32.507Z,58.23
2019-01-21T10:50:47.975Z,58.21
2019-01-21T10:52:23.161Z,58.27
2019-01-21T10:53:56.947Z,58.31
2019-01-21T10:55:31.757Z,58.31
2019-01-21T10:56:53.519Z,58.28
2019-01-21T10:58:12.177Z,58.37
2019-01-21T10:59:35.978Z,58.48
2019-01-21T11:01:26.588Z,58.52
2019-01-21T11:02:51.106Z,58.44
2019-01-21T11:04:18.318Z,58.31
2019-01-21T11:05:42.752Z,58.16
2019-01-21T11:07:19.566Z,58.25
2019-01-21T11:08:55.639Z,58.27
2019-01-21T11:10:26.115Z,58.29
2019-01-21T11:12:07.107Z,58.16
2019-01-21T11:13:36.593Z,58.32
2019-01-21T11:14:55.269Z,58.84
2019-01-21T11:16:13.429Z,59.01
2019-01-21T11:17:37.986Z,59.08
2019-01-21T11:19:15.810Z,59.02
2019-01-21T11:20:48.016Z,58.78
2019-01-21T11:22:00.502Z,58.51
2019-01-21T11:23:37.198Z,58.23
2019-01-21T11:24:56.236Z,58.07
2019-01-21T11:26:37.912Z,57.89
2019-01-21T11:27:56.923Z,57.75
2019-01-21T11:29:29.614Z,57.53
2019-01-21T11:31:01.621Z,57.36
2019-01-21T11:32:32.334Z,57.25
2019-01-21T11:34:08.365Z,57.15
2019-01-21T11:35:32.608Z,56.99
2019-01-21T11:37:00.529Z,56.81
2019-01-21T11:38:22.139Z,56.74
2019-01-21T11:39:58.089Z,56.77
2019-01-21T11:41:26.221Z,56.79
2019-01-21T11:42:41.485Z,56.56
2019-01-21T11:44:05.678Z,56.63
2019-01-21T11:45:50.571Z,56.70
2019-01-21T11:47:08.930Z,56.79
2019-01-21T11:48:36.842Z,56.82
2019-01-21T11:50:26.214Z,56.80
2019-01-21T11:51:50.897Z,56.82
2019-01-21T11:53:05.987Z,56.75
2019-01-21T11:54:18.486Z,56.75
2019-01-21T11:55:53.139Z,56.73
2019-01-21T11:57:23.699Z,56.73
2019-01-21T11:59:01.638Z,56.64
2019-01-21T12:00:53.517Z,56.81
2019-01-21T12:02:08.711Z,57.03
2019-01-21T12:03:42.680Z,57.05
2019-01-21T12:05:09.937Z,56.93
2019-01-21T12:06:21.918Z,56.72
2019-01-21T12:07:49.379Z,56.59
2019-01-21T12:09:10.826Z,56.51
2019-01-21T12:10:32.303Z,56.37
2019-01-21T12:11:57.651Z,56.25
2019-01-21T12:13:39.722Z,56.11
2019-01-21T12:15:28.741Z,55.96
2019-01-21T12:17:19.063Z,55.74
2019-01-21T12:18:31.581Z,55.83
2019-01-21T12:20:04.905Z,55.96
2019-01-21T12:21:37.379Z,56.01
2019-01-21T12:23:20.193Z,56.02
2019-01-21T12:24:29.140Z,56.13
2019-01-21T12:26:14.314Z,56.25
2019-01-21T12:27:38.131Z,56.54
2019-01-21T12:29:16.249Z,56.87
2019-01-21T12:30:40.516Z,57.05
2019-01-21T12:32:24.361Z,57.18
2019-01-21T12:34:05.323Z,57.25
2019-01-21T12:35:29.590Z,57.31
2019-01-21T12:36:44.752Z,57.29
2019-01-21T12:38:31.057Z,57.35
2019-01-21T12:40:09.565Z,57.43
2019-01-21T12:41:43.370Z,57.41
2019-01-21T12:43:04.767Z,57.44
2019-01-21T12:44:51.996Z,57.48
2019-01-21T12:46:10.219Z,57.46
2019-01-21T12:47:31.109Z,57.42
2019-01-21T12:48:49.084Z,57.42
2019-01-21T12:50:25.505Z,57.44
2019-01-21T12:52:01.949Z,57.50
2019-01-21T12:53:38.615Z,57.47
2019-01-21T12:55:00.085Z,57.39
2019-01-21T12:56:59.689Z,57.27
2019-01-21T12:58:37.726Z,57.24
2019-01-21T13:00:06.363Z,57.19
2019-01-21T13:01:18.818Z,57.20
2019-01-21T13:02:36.897Z,57.32
2019-01-21T13:04:08.962Z,57.38
2019-01-21T13:05:33.598Z,57.45
2019-01-21T13:06:49.272Z,57.52
2019-01-21T13:08:13.572Z,57.53
2019-01-21T13:09:44.582Z,57.56
2019-01-21T13:11:02.875Z,57.62
2019-01-21T13:12:30.355Z,57.72
2019-01-21T13:13:49.589Z,57.81
2019-01-21T13:15:07.862Z,57.87
2019-01-21T13:16:47.076Z,57.79
2019-01-21T13:18:26.597Z,57.73
2019-01-21T13:20:04.393Z,57.61
2019-01-21T13:21:49.988Z,57.44
2019-01-21T13:23:08.386Z,57.44
2019-01-21T13:24:52.848Z,57.53
2019-01-21T13:26:40.375Z,57.76
2019-01-21T13:28:20.980Z,57.83
2019-01-21T13:29:33.724Z,57.77
2019-01-21T13:31:00.379Z,57.76
2019-01-21T13:32:33.806Z,57.79
2019-01-21T13:33:51.963Z,57.88
2019-01-21T13:35:28.254Z,57.98
2019-01-21T13:36:46.742Z,58.10
2019-01-21T13:38:19.908Z,58.14
2019-01-21T13:40:10.750Z,58.15
2019-01-21T13:41:28.792Z,58.14
2019-01-21T13:42:47.232Z,58.18
2019-01-21T13:44:11.258Z,58.19
2019-01-21T13:45:32.520Z,58.15
2019-01-21T13:47:03.321Z,58.14
2019-01-21T13:48:19.285Z,58.24
2019-01-21T13:49:50.515Z,58.12
2019-01-21T13:51:24.208Z,58.07
2019-01-21T13:53:17.425Z,58.00
2019-01-21T13:54:55.128Z,57.88
2019-01-21T13:56:25.806Z,57.92
2019-01-21T13:58:05.053Z,57.96
2019-01-21T13:59:40.485Z,58.18
2019-01-21T14:01:04.915Z,58.30
2019-01-21T14:02:17.487Z,58.34
2019-01-21T14:03:38.563Z,58.30
2019-01-21T14:05:12.427Z,58.27
2019-01-21T14:06:30.355Z,58.17
2019-01-21T14:08:21.001Z,57.98
2019-01-21T14:09:54.583Z,57.87
2019-01-21T14:11:15.736Z,57.65
2019-01-21T14:12:34.132Z,57.57
2019-01-21T14:13:58.573Z,57.58
2019-01-21T14:15:29.203Z,57.62
2019-01-21T14:16:50.087Z,57.66
2019-01-21T14:18:28.995Z,57.74
2019-01-21T14:19:47.181Z,57.85
2019-01-21T14:21:31.697Z,57.96
2019-01-21T14:22:53.345Z,58.02
2019-01-21T14:24:17.743Z,58.26
2019-01-21T14:25:42.288Z,58.47
2019-01-21T14:27:19.075Z,58.66
2019-01-21T14:29:17.216Z,58.77
2019-01-21T14:30:46.915Z,58.90
2019-01-21T14:32:20.562Z,59.01
2019-01-21T14:33:50.955Z,59.04
2019-01-21T14:35:05.799Z,59.15
2019-01-21T14:36:30.013Z,59.29
2019-01-21T14:37:51.677Z,59.38
2019-01-21T14:39:30.940Z,59.46
2019-01-21T14:40:52.515Z,59.51
2019-01-21T14:42:25.834Z,59.66
2019-01-21T14:44:17.660Z,59.78
2019-01-21T14:45:30.534Z,59.80
2019-01-21T14:46:48.410Z,59.86
2019-01-21T14:48:31.017Z,59.97
2019-01-21T14:49:49.817Z,60.14
2019-01-21T14:51:21.970Z,60.19
2019-01-21T14:52:43.383Z,60.25
2019-01-21T14:54:11.233Z,60.30
2019-01-21T14:55:32.647Z,60.32
2019-01-21T14:57:14.182Z,60.35
2019-01-21T14:58:41.415Z,60.39
2019-01-21T15:00:05.826Z,60.42
2019-01-21T15:01:24.466Z,60.55
2019-01-21T15:02:53.509Z,60.60
2019-01-21T15:04:33.464Z,60.64
2019-01-21T15:05:55.314Z,60.72
2019-01-21T15:07:17.023Z,60.78
2019-01-21T15:08:29.762Z,60.80
2019-01-21T15:10:10.882Z,60.84
2019-01-21T15:11:47.383Z,60.89
2019-01-21T15:13:15.012Z,60.93
2019-01-21T15:15:07.009Z,60.95
2019-01-21T15:16:36.790Z,60.92
2019-01-21T15:18:12.755Z,60.81
2019-01-21T15:19:25.452Z,60.80
2019-01-21T15:20:50.071Z,60.79
2019-01-21T15:22:20.924Z,60.81
2019-01-21T15:23:51.512Z,60.82
2019-01-21T15:25:27.761Z,60.82
2019-01-21T15:26:58.900Z,60.90
2019-01-21T15:28:22.583Z,61.01
2019-01-21T15:29:41.866Z,61.11
2019-01-21T15:31:23.685Z,61.16
2019-01-21T15:32:50.713Z,61.23
2019-01-21T15:34:26.998Z,61.30
2019-01-21T15:35:51.472Z,61.28
2019-01-21T15:37:27.340Z,61.29
2019-01-21T15:38:59.148Z,61.29
2019-01-21T15:40:35.947Z,61.17
2019-01-21T15:41:54.351Z,61.10
2019-01-21T15:43:13.104Z,61.03
2019-01-21T15:44:52.657Z,61.01
2019-01-21T15:46:42.772Z,61.08
2019-01-21T15:48:17.711Z,61.12
2019-01-21T15:49:38.403Z,61.11
2019-01-21T15:50:56.707Z,61.20
2019-01-21T15:52:12.382Z,61.28
2019-01-21T15:53:37.468Z,61.37
2019-01-21T15:54:58.494Z,61.34
2019-01-21T15:56:16.855Z,61.36
2019-01-21T15:57:44.139Z,61.42
2019-01-21T15:59:25.269Z,61.46
2019-01-21T16:00:43.097Z,61.47
2019-01-21T16:02:04.325Z,61.47
2019-01-21T16:03:25.632Z,61.59
2019-01-21T16:04:53.113Z,61.67
2019-01-21T16:06:43.468Z,61.67
2019-01-21T16:07:58.395Z,61.80
2019-01-21T16:09:22.891Z,61.93
2019-01-21T16:10:57.164Z,62.00
2019-01-21T16:12:18.666Z,62.02
2019-01-21T16:13:37.986Z,62.06
2019-01-21T16:15:12.462Z,62.14
2019-01-21T16:16:41.055Z,62.19
2019-01-21T16:18:02.793Z,62.19
2019-01-21T16:19:17.283Z,62.23
2019-01-21T16:20:29.954Z,62.24
2019-01-21T16:22:16.442Z,62.25
2019-01-21T16:23:43.282Z,62.25
2019-01-21T16:25:07.673Z,62.17
2019-01-21T16:26:15.996Z,62.09
2019-01-21T16:27:40.562Z,62.02
2019-01-21T16:28:53.192Z,61.99
2019-01-21T16:30:25.226Z,61.97
2019-01-21T16:31:33.319Z,61.97
2019-01-21T16:32:45.359Z,62.00
2019-01-21T16:34:25.693Z,62.10
2019-01-21T16:35:55.010Z,62.12
2019-01-21T16:37:40.851Z,62.22
2019-01-21T16:38:53.645Z,62.33
2019-01-21T16:40:21.972Z,62.30
2019-01-21T16:41:43.103Z,62.35
2019-01-21T16:42:51.350Z,62.38
2019-01-21T16:44:00.448Z,62.51
2019-01-21T16:45:08.740Z,62.57
2019-01-21T16:46:16.966Z,62.62
2019-01-21T16:47:26.501Z,62.71
2019-01-21T16:48:36.505Z,62.73
2019-01-21T16:49:44.711Z,62.76
2019-01-21T16:50:53.805Z,62.79
2019-01-21T16:52:01.755Z,62.78
2019-01-21T16:53:11.565Z,62.80
2019-01-21T16:54:20.107Z,62.84
2019-01-21T16:55:28.879Z,62.86
2019-01-21T16:56:36.880Z,62.92
2019-01-21T16:57:44.538Z,62.99
2019-01-21T16:58:53.301Z,62.97
2019-01-21T17:00:01.523Z,62.95
2019-01-21T17:01:09.636Z,62.88
2019-01-21T17:02:17.398Z,62.83
2019-01-21T17:03:25.518Z,62.87
2019-01-21T17:04:33.691Z,62.80
2019-01-21T17:05:41.869Z,62.76
2019-01-21T17:06:50.643Z,62.70
2019-01-21T17:08:00.703Z,62.75
2019-01-21T17:09:10.993Z,62.76
2019-01-21T17:10:18.875Z,62.75
2019-01-21T17:11:26.480Z,62.73
2019-01-21T17:12:35.918Z,62.75
2019-01-21T17:13:44.953Z,62.76
2019-01-21T17:14:57.661Z,62.77
2019-01-21T17:16:04.013Z,62.79
2019-01-21T17:18:20.260Z,62.83
2019-01-21T17:19:28.050Z,62.82
2019-01-21T17:20:35.921Z,62.96
2019-01-21T17:21:43.903Z,62.96
2019-01-21T17:22:51.880Z,62.90
2019-01-21T17:24:00.255Z,62.80
2019-01-21T17:25:09.661Z,62.84
2019-01-21T17:26:18.644Z,62.82
2019-01-21T17:27:26.659Z,62.82
2019-01-21T17:28:34.671Z,62.86
2019-01-21T17:29:42.982Z,62.87
2019-01-21T17:30:50.927Z,62.86
2019-01-21T17:31:58.459Z,62.89
2019-01-21T17:33:06.328Z,62.87
2019-01-21T17:34:14.050Z,62.80
2019-01-21T17:35:22.468Z,62.76
2019-01-21T17:36:30.679Z,62.71
2019-01-21T17:37:38.302Z,62.66
2019-01-21T17:38:46.043Z,62.60
2019-01-21T17:39:54.061Z,62.56
2019-01-21T17:41:02.133Z,62.60
2019-01-21T17:42:10.069Z,62.64
2019-01-21T17:43:17.721Z,62.69
2019-01-21T17:44:25.751Z,62.68
2019-01-21T17:45:34.363Z,62.68
2019-01-21T17:46:42.488Z,62.64
2019-01-21T17:47:50.411Z,62.65
2019-01-21T17:48:58.805Z,62.63
2019-01-21T17:50:13.062Z,62.58
2019-01-21T17:51:21.437Z,62.58
2019-01-21T17:52:29.517Z,62.60
2019-01-21T17:53:37.439Z,62.60
2019-01-21T17:54:45.488Z,62.58
2019-01-21T17:55:53.369Z,62.62
2019-01-21T17:57:01.618Z,62.67
2019-01-21T17:58:09.756Z,62.71
2019-01-21T17:59:18.119Z,62.73